sensor_id;sensor_type;location;lat;lon;timestamp;pressure;altitude;pressure_sealevel;temperature;humidity
48041;BME280;33815;48.386;11.738;2023-03-04T00:00:03;96875.03;;;-2.73;100.00
48041;BME280;33815;48.386;11.738;2023-03-04T00:02:28;96879.22;;;-2.72;100.00
48041;BME280;33815;48.386;11.738;2023-03-04T00:04:53;96870.69;;;-2.71;100.00
48041;BME280;33815;48.386;11.738;2023-03-04T00:07:19;96886.59;;;-2.65;100.00
48041;BME280;33815;48.386;11.738;2023-03-04T00:09:44;96882.56;;;-2.70;100.00
48041;BME280;33815;48.386;11.738;2023-03-04T00:12:10;96886.72;;;-2.68;100.00
48041;BME280;33815;48.386;11.738;2023-03-04T00:14:35;96897.16;;;-2.74;100.00
48041;BME280;33815;48.386;11.738;2023-03-04T00:17:01;96890.44;;;-2.77;100.00
48041;BME280;33815;48.386;11.738;2023-03-04T00:19:28;96892.22;;;-2.79;100.00
48041;BME280;33815;48.386;11.738;2023-03-04T00:21:53;96876.66;;;-2.93;100.00
48041;BME280;33815;48.386;11.738;2023-03-04T00:24:19;96890.81;;;-2.86;100.00
48041;BME280;33815;48.386;11.738;2023-03-04T00:26:44;96882.63;;;-2.94;100.00
48041;BME280;33815;48.386;11.738;2023-03-04T00:29:10;96892.78;;;-2.93;100.00
48041;BME280;33815;48.386;11.738;2023-03-04T00:31:35;96891.94;;;-2.93;100.00
48041;BME280;33815;48.386;11.738;2023-03-04T00:34:01;96895.59;;;-3.00;100.00
48041;BME280;33815;48.386;11.738;2023-03-04T00:36:26;96877.41;;;-3.13;100.00
48041;BME280;33815;48.386;11.738;2023-03-04T00:38:51;96889.88;;;-3.05;100.00
48041;BME280;33815;48.386;11.738;2023-03-04T00:41:16;96882.69;;;-3.18;100.00
48041;BME280;33815;48.386;11.738;2023-03-04T00:43:42;96892.75;;;-3.15;100.00
48041;BME280;33815;48.386;11.738;2023-03-04T00:46:07;96892.38;;;-3.28;100.00
48041;BME280;33815;48.386;11.738;2023-03-04T00:48:32;96885.69;;;-3.30;100.00
48041;BME280;33815;48.386;11.738;2023-03-04T00:50:57;96897.84;;;-3.15;100.00
48041;BME280;33815;48.386;11.738;2023-03-04T00:53:23;96883.56;;;-3.19;100.00
48041;BME280;33815;48.386;11.738;2023-03-04T00:55:48;96888.25;;;-3.08;100.00
48041;BME280;33815;48.386;11.738;2023-03-04T00:58:14;96889.13;;;-3.09;100.00
48041;BME280;33815;48.386;11.738;2023-03-04T01:00:39;96893.44;;;-3.10;100.00
48041;BME280;33815;48.386;11.738;2023-03-04T01:03:04;96888.50;;;-3.14;100.00
48041;BME280;33815;48.386;11.738;2023-03-04T01:05:30;96872.00;;;-3.28;100.00
48041;BME280;33815;48.386;11.738;2023-03-04T01:07:56;96867.91;;;-3.32;100.00
48041;BME280;33815;48.386;11.738;2023-03-04T01:10:21;96879.72;;;-3.29;100.00
48041;BME280;33815;48.386;11.738;2023-03-04T01:12:46;96878.09;;;-3.32;100.00
48041;BME280;33815;48.386;11.738;2023-03-04T01:15:12;96871.13;;;-3.27;100.00
48041;BME280;33815;48.386;11.738;2023-03-04T01:17:38;96873.59;;;-3.25;100.00
48041;BME280;33815;48.386;11.738;2023-03-04T01:20:05;96868.31;;;-3.20;100.00
48041;BME280;33815;48.386;11.738;2023-03-04T01:22:30;96854.75;;;-3.21;100.00
48041;BME280;33815;48.386;11.738;2023-03-04T01:24:56;96859.13;;;-3.24;100.00
48041;BME280;33815;48.386;11.738;2023-03-04T01:27:21;96857.72;;;-3.32;100.00
48041;BME280;33815;48.386;11.738;2023-03-04T01:29:46;96858.59;;;-3.33;100.00
48041;BME280;33815;48.386;11.738;2023-03-04T01:32:11;96866.16;;;-3.30;100.00
48041;BME280;33815;48.386;11.738;2023-03-04T01:34:37;96865.53;;;-3.36;100.00
48041;BME280;33815;48.386;11.738;2023-03-04T01:37:02;96841.38;;;-3.50;100.00
48041;BME280;33815;48.386;11.738;2023-03-04T01:39:27;96861.59;;;-3.45;100.00
48041;BME280;33815;48.386;11.738;2023-03-04T01:41:53;96859.28;;;-3.51;100.00
48041;BME280;33815;48.386;11.738;2023-03-04T01:44:18;96865.38;;;-3.55;100.00
48041;BME280;33815;48.386;11.738;2023-03-04T01:46:47;96851.22;;;-3.63;100.00
48041;BME280;33815;48.386;11.738;2023-03-04T01:49:14;96847.59;;;-3.57;100.00
48041;BME280;33815;48.386;11.738;2023-03-04T01:51:43;96853.63;;;-3.59;100.00
48041;BME280;33815;48.386;11.738;2023-03-04T01:54:09;96845.22;;;-3.62;100.00
48041;BME280;33815;48.386;11.738;2023-03-04T01:56:36;96849.28;;;-3.56;100.00
48041;BME280;33815;48.386;11.738;2023-03-04T01:59:06;96846.06;;;-3.61;100.00
48041;BME280;33815;48.386;11.738;2023-03-04T02:01:32;96845.22;;;-3.62;100.00
48041;BME280;33815;48.386;11.738;2023-03-04T02:03:58;96843.56;;;-3.63;100.00
48041;BME280;33815;48.386;11.738;2023-03-04T02:06:23;96836.91;;;-3.67;100.00
48041;BME280;33815;48.386;11.738;2023-03-04T02:08:48;96839.22;;;-3.61;100.00
48041;BME280;33815;48.386;11.738;2023-03-04T02:11:14;96828.94;;;-3.57;100.00
48041;BME280;33815;48.386;11.738;2023-03-04T02:13:39;96834.13;;;-3.61;100.00
48041;BME280;33815;48.386;11.738;2023-03-04T02:16:04;96815.00;;;-3.71;100.00
48041;BME280;33815;48.386;11.738;2023-03-04T02:18:29;96829.16;;;-3.64;100.00
48041;BME280;33815;48.386;11.738;2023-03-04T02:21:13;96841.44;;;-3.51;100.00
48041;BME280;33815;48.386;11.738;2023-03-04T02:28:46;96829.91;;;-3.38;100.00
48041;BME280;33815;48.386;11.738;2023-03-04T02:31:27;96823.28;;;-3.42;100.00
48041;BME280;33815;48.386;11.738;2023-03-04T02:33:56;96817.38;;;-3.44;100.00
48041;BME280;33815;48.386;11.738;2023-03-04T02:36:22;96828.38;;;-3.42;100.00
48041;BME280;33815;48.386;11.738;2023-03-04T02:38:50;96830.72;;;-3.37;100.00
48041;BME280;33815;48.386;11.738;2023-03-04T02:41:19;96828.91;;;-3.34;100.00
48041;BME280;33815;48.386;11.738;2023-03-04T02:43:46;96821.28;;;-3.34;100.00
48041;BME280;33815;48.386;11.738;2023-03-04T02:46:13;96822.81;;;-3.30;100.00
48041;BME280;33815;48.386;11.738;2023-03-04T02:48:38;96838.09;;;-3.30;100.00
48041;BME280;33815;48.386;11.738;2023-03-04T02:51:04;96828.13;;;-3.36;100.00
48041;BME280;33815;48.386;11.738;2023-03-04T02:53:29;96827.53;;;-3.42;100.00
48041;BME280;33815;48.386;11.738;2023-03-04T02:55:54;96829.59;;;-3.52;100.00
48041;BME280;33815;48.386;11.738;2023-03-04T02:58:20;96825.34;;;-3.52;100.00
48041;BME280;33815;48.386;11.738;2023-03-04T03:00:45;96827.94;;;-3.53;100.00
48041;BME280;33815;48.386;11.738;2023-03-04T03:03:10;96826.41;;;-3.57;100.00
48041;BME280;33815;48.386;11.738;2023-03-04T03:05:36;96826.41;;;-3.57;100.00
48041;BME280;33815;48.386;11.738;2023-03-04T03:08:02;96812.88;;;-3.59;100.00
48041;BME280;33815;48.386;11.738;2023-03-04T03:10:27;96831.25;;;-3.51;100.00
48041;BME280;33815;48.386;11.738;2023-03-04T03:12:53;96811.31;;;-3.64;100.00
48041;BME280;33815;48.386;11.738;2023-03-04T03:15:18;96819.81;;;-3.63;100.00
48041;BME280;33815;48.386;11.738;2023-03-04T03:17:43;96828.28;;;-3.63;100.00
48041;BME280;33815;48.386;11.738;2023-03-04T03:20:10;96823.94;;;-3.61;100.00
48041;BME280;33815;48.386;11.738;2023-03-04T03:22:37;96832.03;;;-3.49;100.00
48041;BME280;33815;48.386;11.738;2023-03-04T03:25:03;96829.91;;;-3.38;100.00
48041;BME280;33815;48.386;11.738;2023-03-04T03:27:28;96824.97;;;-3.42;100.00
48041;BME280;33815;48.386;11.738;2023-03-04T03:29:54;96829.13;;;-3.40;100.00
48041;BME280;33815;48.386;11.738;2023-03-04T03:32:19;96822.66;;;-3.49;100.00
48041;BME280;33815;48.386;11.738;2023-03-04T03:34:44;96827.38;;;-3.38;100.00
48041;BME280;33815;48.386;11.738;2023-03-04T03:37:10;96830.19;;;-3.46;100.00
48041;BME280;33815;48.386;11.738;2023-03-04T03:39:35;96835.16;;;-3.42;100.00
48041;BME280;33815;48.386;11.738;2023-03-04T03:42:00;96823.44;;;-3.47;100.00
48041;BME280;33815;48.386;11.738;2023-03-04T03:44:26;96828.66;;;-3.50;100.00
48041;BME280;33815;48.386;11.738;2023-03-04T03:46:51;96835.53;;;-3.52;100.00
48041;BME280;33815;48.386;11.738;2023-03-04T03:49:16;96832.13;;;-3.52;100.00
48041;BME280;33815;48.386;11.738;2023-03-04T03:51:42;96833.69;;;-3.48;100.00
48041;BME280;33815;48.386;11.738;2023-03-04T03:54:07;96823.84;;;-3.57;100.00
48041;BME280;33815;48.386;11.738;2023-03-04T03:56:33;96823.91;;;-3.59;100.00
48041;BME280;33815;48.386;11.738;2023-03-04T03:58:58;96831.59;;;-3.61;100.00
48041;BME280;33815;48.386;11.738;2023-03-04T04:01:24;96825.78;;;-3.64;100.00
48041;BME280;33815;48.386;11.738;2023-03-04T04:03:49;96836.75;;;-3.62;100.00
48041;BME280;33815;48.386;11.738;2023-03-04T04:06:14;96826.84;;;-3.70;100.00
48041;BME280;33815;48.386;11.738;2023-03-04T04:08:39;96823.69;;;-3.76;100.00
48041;BME280;33815;48.386;11.738;2023-03-04T04:11:05;96822.13;;;-3.81;100.00
48041;BME280;33815;48.386;11.738;2023-03-04T04:13:30;96817.91;;;-3.82;100.00
48041;BME280;33815;48.386;11.738;2023-03-04T04:15:55;96820.25;;;-3.75;100.00
48041;BME280;33815;48.386;11.738;2023-03-04T04:18:20;96815.34;;;-3.80;100.00
48041;BME280;33815;48.386;11.738;2023-03-04T04:20:46;96823.97;;;-3.84;100.00
48041;BME280;33815;48.386;11.738;2023-03-04T04:23:11;96821.47;;;-3.86;100.00
48041;BME280;33815;48.386;11.738;2023-03-04T04:25:37;96822.53;;;-3.91;100.00
48041;BME280;33815;48.386;11.738;2023-03-04T04:28:02;96823.47;;;-3.94;100.00
48041;BME280;33815;48.386;11.738;2023-03-04T04:30:28;96817.09;;;-4.06;100.00
48041;BME280;33815;48.386;11.738;2023-03-04T04:32:53;96817.28;;;-4.10;100.00
48041;BME280;33815;48.386;11.738;2023-03-04T04:35:19;96819.03;;;-4.13;100.00
48041;BME280;33815;48.386;11.738;2023-03-04T04:37:44;96812.50;;;-4.20;100.00
48041;BME280;33815;48.386;11.738;2023-03-04T04:40:10;96812.56;;;-4.21;100.00
48041;BME280;33815;48.386;11.738;2023-03-04T04:42:35;96817.75;;;-4.24;100.00
48041;BME280;33815;48.386;11.738;2023-03-04T04:45:01;96814.41;;;-4.26;100.00
48041;BME280;33815;48.386;11.738;2023-03-04T04:47:26;96815.22;;;-4.24;100.00
48041;BME280;33815;48.386;11.738;2023-03-04T04:49:51;96819.47;;;-4.25;100.00
48041;BME280;33815;48.386;11.738;2023-03-04T04:52:16;96805.25;;;-4.31;100.00
48041;BME280;33815;48.386;11.738;2023-03-04T04:54:42;96801.28;;;-4.39;100.00
48041;BME280;33815;48.386;11.738;2023-03-04T04:57:07;96819.03;;;-4.38;100.00
48041;BME280;33815;48.386;11.738;2023-03-04T04:59:32;96814.81;;;-4.37;100.00
48041;BME280;33815;48.386;11.738;2023-03-04T05:01:57;96817.50;;;-4.42;100.00
48041;BME280;33815;48.386;11.738;2023-03-04T05:04:23;96820.81;;;-4.40;100.00
48041;BME280;33815;48.386;11.738;2023-03-04T05:06:48;96810.75;;;-4.43;100.00
48041;BME280;33815;48.386;11.738;2023-03-04T05:09:13;96808.34;;;-4.48;100.00
48041;BME280;33815;48.386;11.738;2023-03-04T05:11:39;96823.44;;;-4.41;100.00
48041;BME280;33815;48.386;11.738;2023-03-04T05:14:04;96827.41;;;-4.34;100.00
48041;BME280;33815;48.386;11.738;2023-03-04T05:16:29;96819.94;;;-4.39;100.00
48041;BME280;33815;48.386;11.738;2023-03-04T05:18:54;96827.47;;;-4.36;100.00
48041;BME280;33815;48.386;11.738;2023-03-04T05:21:20;96815.84;;;-4.43;100.00
48041;BME280;33815;48.386;11.738;2023-03-04T05:23:45;96818.06;;;-4.34;100.00
48041;BME280;33815;48.386;11.738;2023-03-04T05:26:13;96834.06;;;-4.30;100.00
48041;BME280;33815;48.386;11.738;2023-03-04T05:28:39;96835.06;;;-4.34;100.00
48041;BME280;33815;48.386;11.738;2023-03-04T05:31:05;96841.06;;;-4.37;100.00
48041;BME280;33815;48.386;11.738;2023-03-04T05:33:30;96818.53;;;-4.48;100.00
48041;BME280;33815;48.386;11.738;2023-03-04T05:35:56;96831.22;;;-4.46;100.00
48041;BME280;33815;48.386;11.738;2023-03-04T05:38:21;96842.09;;;-4.42;100.00
48041;BME280;33815;48.386;11.738;2023-03-04T05:40:47;96835.41;;;-4.45;100.00
48041;BME280;33815;48.386;11.738;2023-03-04T05:43:13;96833.75;;;-4.46;100.00
48041;BME280;33815;48.386;11.738;2023-03-04T05:45:39;96832.09;;;-4.47;100.00
48041;BME280;33815;48.386;11.738;2023-03-04T05:48:05;96828.09;;;-4.54;100.00
48041;BME280;33815;48.386;11.738;2023-03-04T05:50:31;96829.97;;;-4.59;100.00
48041;BME280;33815;48.386;11.738;2023-03-04T05:52:56;96839.16;;;-4.55;100.00
48041;BME280;33815;48.386;11.738;2023-03-04T05:55:22;96842.50;;;-4.55;100.00
48041;BME280;33815;48.386;11.738;2023-03-04T05:57:47;96840.75;;;-4.53;100.00
48041;BME280;33815;48.386;11.738;2023-03-04T06:00:16;96846.94;;;-4.60;100.00
48041;BME280;33815;48.386;11.738;2023-03-04T06:02:42;96847.00;;;-4.61;100.00
48041;BME280;33815;48.386;11.738;2023-03-04T06:05:12;96836.13;;;-4.67;100.00
48041;BME280;33815;48.386;11.738;2023-03-04T06:07:37;96846.94;;;-4.60;100.00
48041;BME280;33815;48.386;11.738;2023-03-04T06:10:03;96844.94;;;-4.50;100.00
48041;BME280;33815;48.386;11.738;2023-03-04T06:12:29;96848.03;;;-4.42;100.00
48041;BME280;33815;48.386;11.738;2023-03-04T06:14:54;96843.03;;;-4.45;100.00
48041;BME280;33815;48.386;11.738;2023-03-04T06:17:20;96851.25;;;-4.37;100.00
48041;BME280;33815;48.386;11.738;2023-03-04T06:19:45;96853.63;;;-4.32;100.00
48041;BME280;33815;48.386;11.738;2023-03-04T06:22:12;96854.16;;;-4.22;100.00
48041;BME280;33815;48.386;11.738;2023-03-04T06:24:37;96863.28;;;-4.17;100.00
48041;BME280;33815;48.386;11.738;2023-03-04T06:27:03;96858.31;;;-4.20;100.00
48041;BME280;33815;48.386;11.738;2023-03-04T06:29:28;96864.91;;;-4.14;100.00
48041;BME280;33815;48.386;11.738;2023-03-04T06:31:54;96866.47;;;-4.10;100.00
48041;BME280;33815;48.386;11.738;2023-03-04T06:34:19;96863.78;;;-4.05;100.00
48041;BME280;33815;48.386;11.738;2023-03-04T06:36:45;96860.25;;;-4.03;100.00
48041;BME280;33815;48.386;11.738;2023-03-04T06:39:10;96863.50;;;-3.98;100.00
48041;BME280;33815;48.386;11.738;2023-03-04T06:41:36;96872.91;;;-3.76;100.00
48041;BME280;33815;48.386;11.738;2023-03-04T06:44:01;96859.03;;;-3.67;100.00
48041;BME280;33815;48.386;11.738;2023-03-04T06:46:26;96872.84;;;-3.51;100.00
48041;BME280;33815;48.386;11.738;2023-03-04T06:48:52;96876.00;;;-3.44;100.00
48041;BME280;33815;48.386;11.738;2023-03-04T06:51:18;96863.88;;;-3.37;100.00
48041;BME280;33815;48.386;11.738;2023-03-04T06:53:43;96880.25;;;-3.21;100.00
48041;BME280;33815;48.386;11.738;2023-03-04T06:56:11;96865.66;;;-3.17;100.00
48041;BME280;33815;48.386;11.738;2023-03-04T06:58:36;96880.91;;;-2.94;100.00
48041;BME280;33815;48.386;11.738;2023-03-04T07:01:16;96873.03;;;-2.87;100.00
48041;BME280;33815;48.386;11.738;2023-03-04T07:03:42;96896.00;;;-2.67;100.00
48041;BME280;33815;48.386;11.738;2023-03-04T07:06:09;96887.94;;;-2.56;100.00
48041;BME280;33815;48.386;11.738;2023-03-04T07:08:35;96890.22;;;-2.50;100.00
48041;BME280;33815;48.386;11.738;2023-03-04T07:11:01;96875.63;;;-2.46;100.00
48041;BME280;33815;48.386;11.738;2023-03-04T07:13:26;96883.03;;;-2.40;100.00
48041;BME280;33815;48.386;11.738;2023-03-04T07:15:52;96891.94;;;-2.08;100.00
48041;BME280;33815;48.386;11.738;2023-03-04T07:18:17;96890.84;;;-2.02;100.00
48041;BME280;33815;48.386;11.738;2023-03-04T07:20:42;96894.78;;;-1.95;100.00
48041;BME280;33815;48.386;11.738;2023-03-04T07:23:08;96898.31;;;-1.78;100.00
48041;BME280;33815;48.386;11.738;2023-03-04T07:25:33;96889.91;;;-1.80;100.00
48041;BME280;33815;48.386;11.738;2023-03-04T07:27:58;96891.22;;;-1.72;100.00
48041;BME280;33815;48.386;11.738;2023-03-04T07:30:23;96898.03;;;-1.51;100.00
48041;BME280;33815;48.386;11.738;2023-03-04T07:32:49;96896.72;;;-1.41;100.00
48041;BME280;33815;48.386;11.738;2023-03-04T07:35:14;96888.03;;;-1.37;100.00
48041;BME280;33815;48.386;11.738;2023-03-04T07:37:39;96896.22;;;-1.11;100.00
48041;BME280;33815;48.386;11.738;2023-03-04T07:40:05;96887.25;;;-1.01;100.00
48041;BME280;33815;48.386;11.738;2023-03-04T07:42:32;96892.38;;;-0.83;100.00
48041;BME280;33815;48.386;11.738;2023-03-04T07:44:58;96908.69;;;-0.67;100.00
48041;BME280;33815;48.386;11.738;2023-03-04T07:47:25;96898.47;;;-0.49;100.00
48041;BME280;33815;48.386;11.738;2023-03-04T07:49:50;96908.25;;;-0.23;100.00
48041;BME280;33815;48.386;11.738;2023-03-04T07:52:16;96924.38;;;-0.03;100.00
48041;BME280;33815;48.386;11.738;2023-03-04T07:54:41;96914.94;;;0.15;100.00
48041;BME280;33815;48.386;11.738;2023-03-04T07:57:06;96913.28;;;0.31;100.00
48041;BME280;33815;48.386;11.738;2023-03-04T07:59:31;96916.44;;;0.37;100.00
48041;BME280;33815;48.386;11.738;2023-03-04T08:01:57;96918.56;;;0.62;100.00
48041;BME280;33815;48.386;11.738;2023-03-04T08:04:22;96915.66;;;0.84;100.00
48041;BME280;33815;48.386;11.738;2023-03-04T08:06:47;96913.78;;;1.19;100.00
48041;BME280;33815;48.386;11.738;2023-03-04T08:09:13;96923.03;;;1.38;100.00
48041;BME280;33815;48.386;11.738;2023-03-04T08:11:39;96917.44;;;1.62;100.00
48041;BME280;33815;48.386;11.738;2023-03-04T08:14:05;96921.00;;;1.59;100.00
48041;BME280;33815;48.386;11.738;2023-03-04T08:16:30;96920.03;;;1.62;100.00
48041;BME280;33815;48.386;11.738;2023-03-04T08:18:58;96921.50;;;1.66;100.00
48041;BME280;33815;48.386;11.738;2023-03-04T08:21:25;96910.22;;;1.68;100.00
48041;BME280;33815;48.386;11.738;2023-03-04T08:23:51;96916.72;;;2.04;100.00
48041;BME280;33815;48.386;11.738;2023-03-04T08:26:23;96910.31;;;2.12;100.00
48041;BME280;33815;48.386;11.738;2023-03-04T08:28:49;96921.63;;;2.23;100.00
48041;BME280;33815;48.386;11.738;2023-03-04T08:31:16;96923.94;;;2.28;100.00
48041;BME280;33815;48.386;11.738;2023-03-04T08:33:42;96921.91;;;2.33;100.00
48041;BME280;33815;48.386;11.738;2023-03-04T08:36:07;96919.78;;;2.26;100.00
48041;BME280;33815;48.386;11.738;2023-03-04T08:38:33;96925.06;;;2.53;100.00
48041;BME280;33815;48.386;11.738;2023-03-04T08:40:59;96923.13;;;2.42;100.00
48041;BME280;33815;48.386;11.738;2023-03-04T08:43:25;96917.97;;;2.71;100.00
48041;BME280;33815;48.386;11.738;2023-03-04T08:45:54;96921.81;;;2.92;98.15
48041;BME280;33815;48.386;11.738;2023-03-04T08:48:20;96926.81;;;3.08;95.79
48041;BME280;33815;48.386;11.738;2023-03-04T08:50:46;96922.72;;;2.91;95.90
48041;BME280;33815;48.386;11.738;2023-03-04T08:53:12;96915.66;;;3.22;93.88
48041;BME280;33815;48.386;11.738;2023-03-04T08:55:38;96920.41;;;3.43;93.18
48041;BME280;33815;48.386;11.738;2023-03-04T08:58:05;96910.13;;;3.56;93.49
48041;BME280;33815;48.386;11.738;2023-03-04T09:00:31;96929.50;;;3.89;90.03
48041;BME280;33815;48.386;11.738;2023-03-04T09:02:56;96919.25;;;3.74;89.46
48041;BME280;33815;48.386;11.738;2023-03-04T09:05:21;96923.59;;;3.87;91.26
48041;BME280;33815;48.386;11.738;2023-03-04T09:07:47;96930.63;;;3.85;86.09
48041;BME280;33815;48.386;11.738;2023-03-04T09:10:12;96921.66;;;3.50;85.74
48041;BME280;33815;48.386;11.738;2023-03-04T09:12:38;96904.69;;;3.06;89.14
48041;BME280;33815;48.386;11.738;2023-03-04T09:15:03;96918.63;;;3.16;90.08
48041;BME280;33815;48.386;11.738;2023-03-04T09:17:30;96926.81;;;3.77;89.56
48041;BME280;33815;48.386;11.738;2023-03-04T09:19:56;96919.31;;;3.87;86.82
48041;BME280;33815;48.386;11.738;2023-03-04T09:22:21;96916.41;;;3.92;83.41
48041;BME280;33815;48.386;11.738;2023-03-04T09:24:46;96895.66;;;3.40;85.35
48041;BME280;33815;48.386;11.738;2023-03-04T09:27:12;96912.69;;;3.56;86.39
48041;BME280;33815;48.386;11.738;2023-03-04T09:29:37;96910.09;;;3.83;83.84
48041;BME280;33815;48.386;11.738;2023-03-04T09:32:02;96896.22;;;3.99;83.12
48041;BME280;33815;48.386;11.738;2023-03-04T09:34:27;96901.06;;;4.16;80.48
48041;BME280;33815;48.386;11.738;2023-03-04T09:36:53;96900.03;;;3.53;81.82
48041;BME280;33815;48.386;11.738;2023-03-04T09:39:18;96907.22;;;4.01;83.58
48041;BME280;33815;48.386;11.738;2023-03-04T09:41:48;96893.63;;;4.50;80.17
48041;BME280;33815;48.386;11.738;2023-03-04T09:44:23;96898.31;;;4.82;79.89
48041;BME280;33815;48.386;11.738;2023-03-04T09:46:50;96903.44;;;4.58;75.98
48041;BME280;33815;48.386;11.738;2023-03-04T09:49:18;96884.59;;;4.82;75.62
48041;BME280;33815;48.386;11.738;2023-03-04T09:51:58;96900.63;;;5.11;74.91
48041;BME280;33815;48.386;11.738;2023-03-04T09:57:16;96894.50;;;4.88;72.50
48041;BME280;33815;48.386;11.738;2023-03-04T10:00:15;96895.00;;;4.93;72.31
48041;BME280;33815;48.386;11.738;2023-03-04T10:03:30;96897.88;;;5.01;72.33
48041;BME280;33815;48.386;11.738;2023-03-04T10:05:39;96894.69;;;5.22;72.16
48041;BME280;33815;48.386;11.738;2023-03-04T10:10:57;96893.22;;;5.55;71.60
48041;BME280;33815;48.386;11.738;2023-03-04T10:13:55;96900.56;;;5.72;74.08
48041;BME280;33815;48.386;11.738;2023-03-04T10:16:25;96888.09;;;6.02;69.77
48041;BME280;33815;48.386;11.738;2023-03-04T10:24:41;96877.28;;;5.37;68.29
48041;BME280;33815;48.386;11.738;2023-03-04T10:27:10;96886.88;;;5.10;68.83
48041;BME280;33815;48.386;11.738;2023-03-04T10:29:39;96871.81;;;5.04;70.04
48041;BME280;33815;48.386;11.738;2023-03-04T10:32:05;96881.13;;;5.31;67.86
48041;BME280;33815;48.386;11.738;2023-03-04T10:34:30;96881.56;;;5.49;66.53
48041;BME280;33815;48.386;11.738;2023-03-04T10:36:58;96879.34;;;5.07;69.11
48041;BME280;33815;48.386;11.738;2023-03-04T10:39:36;96859.56;;;5.43;68.26
48041;BME280;33815;48.386;11.738;2023-03-04T10:42:22;96876.44;;;5.12;67.67
48041;BME280;33815;48.386;11.738;2023-03-04T10:44:56;96878.84;;;4.65;69.68
48041;BME280;33815;48.386;11.738;2023-03-04T10:47:24;96872.78;;;4.53;71.58
48041;BME280;33815;48.386;11.738;2023-03-04T10:49:55;96866.88;;;5.01;72.09
48041;BME280;33815;48.386;11.738;2023-03-04T10:54:54;96871.56;;;5.44;68.36
48041;BME280;33815;48.386;11.738;2023-03-04T10:57:25;96870.09;;;5.29;70.42
48041;BME280;33815;48.386;11.738;2023-03-04T10:59:57;96869.53;;;5.72;69.47
48041;BME280;33815;48.386;11.738;2023-03-04T11:02:31;96865.38;;;5.94;69.32
48041;BME280;33815;48.386;11.738;2023-03-04T11:05:25;96859.16;;;5.96;68.97
48041;BME280;33815;48.386;11.738;2023-03-04T11:07:52;96853.22;;;5.83;65.85
48041;BME280;33815;48.386;11.738;2023-03-04T11:10:19;96862.34;;;5.29;67.59
48041;BME280;33815;48.386;11.738;2023-03-04T11:12:59;96856.44;;;5.03;70.13
48041;BME280;33815;48.386;11.738;2023-03-04T11:15:26;96868.75;;;5.47;71.47
48041;BME280;33815;48.386;11.738;2023-03-04T11:17:58;96856.50;;;5.14;68.26
48041;BME280;33815;48.386;11.738;2023-03-04T11:23:31;96851.28;;;5.62;73.00
48041;BME280;33815;48.386;11.738;2023-03-04T11:26:02;96846.75;;;5.77;67.42
48041;BME280;33815;48.386;11.738;2023-03-04T11:28:42;96858.03;;;6.23;67.69
48041;BME280;33815;48.386;11.738;2023-03-04T11:31:13;96857.28;;;5.98;65.91
48041;BME280;33815;48.386;11.738;2023-03-04T11:36:50;96842.88;;;6.41;62.94
48041;BME280;33815;48.386;11.738;2023-03-04T11:39:41;96853.94;;;5.85;67.86
48041;BME280;33815;48.386;11.738;2023-03-04T11:45:01;96845.72;;;5.91;66.26
48041;BME280;33815;48.386;11.738;2023-03-04T11:47:51;96852.78;;;5.89;66.64
48041;BME280;33815;48.386;11.738;2023-03-04T11:50:28;96856.38;;;6.22;66.90
48041;BME280;33815;48.386;11.738;2023-03-04T11:53:18;96852.06;;;5.87;65.67
48041;BME280;33815;48.386;11.738;2023-03-04T12:01:14;96866.22;;;4.73;70.59
48041;BME280;33815;48.386;11.738;2023-03-04T12:03:56;96865.91;;;5.15;71.51
48041;BME280;33815;48.386;11.738;2023-03-04T12:17:21;96842.56;;;5.52;67.52
48041;BME280;33815;48.386;11.738;2023-03-04T12:20:29;96833.31;;;4.51;69.69
48041;BME280;33815;48.386;11.738;2023-03-04T12:23:34;96842.63;;;4.41;71.35
48041;BME280;33815;48.386;11.738;2023-03-04T12:31:58;96835.59;;;4.43;73.83
48041;BME280;33815;48.386;11.738;2023-03-04T12:34:32;96837.94;;;4.72;72.32
48041;BME280;33815;48.386;11.738;2023-03-04T12:45:54;96815.69;;;4.45;71.91
48041;BME280;33815;48.386;11.738;2023-03-04T12:48:31;96821.88;;;4.79;72.08
48041;BME280;33815;48.386;11.738;2023-03-04T12:54:17;96815.78;;;4.56;69.13
48041;BME280;33815;48.386;11.738;2023-03-04T12:57:00;96816.78;;;4.17;69.80
48041;BME280;33815;48.386;11.738;2023-03-04T12:59:35;96818.22;;;3.95;70.50
48041;BME280;33815;48.386;11.738;2023-03-04T13:02:17;96816.75;;;4.04;71.71
48041;BME280;33815;48.386;11.738;2023-03-04T13:07:41;96808.50;;;4.11;71.48
48041;BME280;33815;48.386;11.738;2023-03-04T13:10:17;96805.22;;;3.71;70.73
48041;BME280;33815;48.386;11.738;2023-03-04T13:13:00;96815.94;;;3.24;73.48
48041;BME280;33815;48.386;11.738;2023-03-04T13:15:36;96812.94;;;4.09;73.91
48041;BME280;33815;48.386;11.738;2023-03-04T13:21:17;96797.25;;;3.74;71.94
48041;BME280;33815;48.386;11.738;2023-03-04T13:23:44;96796.88;;;3.93;72.68
48041;BME280;33815;48.386;11.738;2023-03-04T13:26:17;96797.28;;;4.13;69.60
48041;BME280;33815;48.386;11.738;2023-03-04T13:28:44;96796.22;;;4.15;69.90
48041;BME280;33815;48.386;11.738;2023-03-04T13:31:21;96779.41;;;4.22;69.00
48041;BME280;33815;48.386;11.738;2023-03-04T13:33:53;96789.63;;;4.11;69.63
48041;BME280;33815;48.386;11.738;2023-03-04T13:41:47;96802.41;;;3.87;72.36
48041;BME280;33815;48.386;11.738;2023-03-04T13:44:34;96789.94;;;4.06;69.75
48041;BME280;33815;48.386;11.738;2023-03-04T13:47:14;96797.38;;;3.85;71.27
48041;BME280;33815;48.386;11.738;2023-03-04T13:49:40;96803.13;;;3.63;71.71
48041;BME280;33815;48.386;11.738;2023-03-04T13:52:39;96804.56;;;3.54;71.85
48041;BME280;33815;48.386;11.738;2023-03-04T13:55:37;96799.81;;;3.48;71.38
48041;BME280;33815;48.386;11.738;2023-03-04T13:58:22;96797.03;;;3.38;71.06
48041;BME280;33815;48.386;11.738;2023-03-04T14:00:52;96788.28;;;3.67;71.91
48041;BME280;33815;48.386;11.738;2023-03-04T14:03:20;96790.25;;;4.02;70.05
48041;BME280;33815;48.386;11.738;2023-03-04T14:05:46;96784.22;;;4.40;67.43